Aviation Digital Data Service (ADDS)

Output produced by METARs form (1207 UTC 18 June 2019)
found at http://www.aviationweather.gov/metar/data/
 
METAR text: ZMUB 181200Z VRB02MPS 9999 FEW030CB SCT033 22/11 Q1014 NOSIG RMK QFE653.5 50 MOP
Conditions at: ZMUB (ULAN-BATOR , MG) observed 1200 UTC 18 June 2019
Temperature: 22.0°C (72°F)
Dewpoint: 11.0°C (52°F) [RH = 50%]
Pressure (altimeter): 29.94 inches Hg (1014.0 mb)
Winds: variable direction winds at 5 MPH (4 knots; 2.1 m/s)
Visibility: 6 or more miles (10+ km)
Ceiling: at least 12,000 feet AGL
Clouds: few clouds at 3000 feet AGL
scattered clouds at 3300 feet AGL
Weather: no significant weather observed at this time

METAR text: ZMUB 181130Z VRB02MPS 9999 FEW030CB SCT033 23/08 Q1014 NOSIG RMK QFE653.3 39 MOP
Conditions at: ZMUB (ULAN-BATOR , MG) observed 1130 UTC 18 June 2019
Temperature: 23.0°C (73°F)
Dewpoint: 8.0°C (46°F) [RH = 38%]
Pressure (altimeter): 29.94 inches Hg (1014.0 mb)
Winds: variable direction winds at 5 MPH (4 knots; 2.1 m/s)
Visibility: 6 or more miles (10+ km)
Ceiling: at least 12,000 feet AGL
Clouds: few clouds at 3000 feet AGL
scattered clouds at 3300 feet AGL
Weather: no significant weather observed at this time

METAR text: ZMUB 181100Z 01003MPS 250V040 9999 FEW030CB SCT033 23/08 Q1014 NOSIG RMK QFE653.2 38 MOP
Conditions at: ZMUB (ULAN-BATOR , MG) observed 1100 UTC 18 June 2019
Temperature: 23.0°C (73°F)
Dewpoint: 8.0°C (46°F) [RH = 38%]
Pressure (altimeter): 29.94 inches Hg (1014.0 mb)
Winds: from the N (10 degrees) at 7 MPH (6 knots; 3.1 m/s)
Visibility: 6 or more miles (10+ km)
Ceiling: at least 12,000 feet AGL
Clouds: few clouds at 3000 feet AGL
scattered clouds at 3300 feet AGL
Weather: no significant weather observed at this time

METAR text: ZMUB 181030Z 03003MPS 360V060 9999 FEW030CB SCT033 23/08 Q1013 NOSIG RMK QFE653.0 37 MOP
Conditions at: ZMUB (ULAN-BATOR , MG) observed 1030 UTC 18 June 2019
Temperature: 23.0°C (73°F)
Dewpoint: 8.0°C (46°F) [RH = 38%]
Pressure (altimeter): 29.91 inches Hg (1013.0 mb)
Winds: from the NNE (30 degrees) at 7 MPH (6 knots; 3.1 m/s)
Visibility: 6 or more miles (10+ km)
Ceiling: at least 12,000 feet AGL
Clouds: few clouds at 3000 feet AGL
scattered clouds at 3300 feet AGL
Weather: no significant weather observed at this time

METAR text: ZMUB 181000Z 03004MPS 360V070 9999 FEW030CB SCT033 23/07 Q1013 NOSIG RMK QFE652.9 33 MOP
Conditions at: ZMUB (ULAN-BATOR , MG) observed 1000 UTC 18 June 2019
Temperature: 23.0°C (73°F)
Dewpoint: 7.0°C (45°F) [RH = 36%]
Pressure (altimeter): 29.91 inches Hg (1013.0 mb)
Winds: from the NNE (30 degrees) at 9 MPH (8 knots; 4.1 m/s)
Visibility: 6 or more miles (10+ km)
Ceiling: at least 12,000 feet AGL
Clouds: few clouds at 3000 feet AGL
scattered clouds at 3300 feet AGL
Weather: no significant weather observed at this time

METAR text: ZMUB 180930Z VRB02MPS 9999 FEW030CB SCT033 25/07 Q1013 NOSIG RMK QFE652.9 33 MOP
Conditions at: ZMUB (ULAN-BATOR , MG) observed 0930 UTC 18 June 2019
Temperature: 25.0°C (77°F)
Dewpoint: 7.0°C (45°F) [RH = 32%]
Pressure (altimeter): 29.91 inches Hg (1013.0 mb)
Winds: variable direction winds at 5 MPH (4 knots; 2.1 m/s)
Visibility: 6 or more miles (10+ km)
Ceiling: at least 12,000 feet AGL
Clouds: few clouds at 3000 feet AGL
scattered clouds at 3300 feet AGL
Weather: no significant weather observed at this time

METAR text: ZMUB 180900Z 07005MPS 040V120 9999 FEW030CB SCT033 24/08 Q1013 NOSIG RMK QFE653.1 35 MOP
Conditions at: ZMUB (ULAN-BATOR , MG) observed 0900 UTC 18 June 2019
Temperature: 24.0°C (75°F)
Dewpoint: 8.0°C (46°F) [RH = 36%]
Pressure (altimeter): 29.91 inches Hg (1013.0 mb)
Winds: from the ENE (70 degrees) at 12 MPH (10 knots; 5.1 m/s)
Visibility: 6 or more miles (10+ km)
Ceiling: at least 12,000 feet AGL
Clouds: few clouds at 3000 feet AGL
scattered clouds at 3300 feet AGL
Weather: no significant weather observed at this time

METAR text: ZMUB 180830Z 05006MPS 020V080 9999 -SHRA SCT030CB SCT033 23/10 Q1014 NOSIG RMK QFE653.3 44 MOP
Conditions at: ZMUB (ULAN-BATOR , MG) observed 0830 UTC 18 June 2019
Temperature: 23.0°C (73°F)
Dewpoint: 10.0°C (50°F) [RH = 44%]
Pressure (altimeter): 29.94 inches Hg (1014.0 mb)
Winds: from the NE (50 degrees) at 14 MPH (12 knots; 6.2 m/s)
Visibility: 6 or more miles (10+ km)
Ceiling: at least 12,000 feet AGL
Clouds: scattered clouds at 3000 feet AGL
scattered clouds at 3300 feet AGL
Weather: -SHRA  (light rain showers)

METAR text: ZMUB 180800Z 07003MPS 9999 SCT030CB SCT033 24/09 Q1013 NOSIG RMK QFE653.2 35 MOP
Conditions at: ZMUB (ULAN-BATOR , MG) observed 0800 UTC 18 June 2019
Temperature: 24.0°C (75°F)
Dewpoint: 9.0°C (48°F) [RH = 38%]
Pressure (altimeter): 29.91 inches Hg (1013.0 mb)
Winds: from the ENE (70 degrees) at 7 MPH (6 knots; 3.1 m/s)
Visibility: 6 or more miles (10+ km)
Ceiling: at least 12,000 feet AGL
Clouds: scattered clouds at 3000 feet AGL
scattered clouds at 3300 feet AGL
Weather: no significant weather observed at this time

METAR text: ZMUB 180730Z VRB02MPS 9999 FEW030CB SCT033 25/08 Q1014 NOSIG RMK QFE653.2 33 MOP
Conditions at: ZMUB (ULAN-BATOR , MG) observed 0730 UTC 18 June 2019
Temperature: 25.0°C (77°F)
Dewpoint: 8.0°C (46°F) [RH = 34%]
Pressure (altimeter): 29.94 inches Hg (1014.0 mb)
Winds: variable direction winds at 5 MPH (4 knots; 2.1 m/s)
Visibility: 6 or more miles (10+ km)
Ceiling: at least 12,000 feet AGL
Clouds: few clouds at 3000 feet AGL
scattered clouds at 3300 feet AGL
Weather: no significant weather observed at this time

METAR text: ZMUB 180700Z VRB02MPS 9999 FEW030CB SCT033 25/08 Q1014 NOSIG RMK QFE653.3 35 MOP
Conditions at: ZMUB (ULAN-BATOR , MG) observed 0700 UTC 18 June 2019
Temperature: 25.0°C (77°F)
Dewpoint: 8.0°C (46°F) [RH = 34%]
Pressure (altimeter): 29.94 inches Hg (1014.0 mb)
Winds: variable direction winds at 5 MPH (4 knots; 2.1 m/s)
Visibility: 6 or more miles (10+ km)
Ceiling: at least 12,000 feet AGL
Clouds: few clouds at 3000 feet AGL
scattered clouds at 3300 feet AGL
Weather: no significant weather observed at this time

METAR text: ZMUB 180630Z 23003MPS 9999 FEW030CB SCT033 24/09 Q1014 NOSIG RMK QFE653.4 38 MOP
Conditions at: ZMUB (ULAN-BATOR , MG) observed 0630 UTC 18 June 2019
Temperature: 24.0°C (75°F)
Dewpoint: 9.0°C (48°F) [RH = 38%]
Pressure (altimeter): 29.94 inches Hg (1014.0 mb)
Winds: from the SW (230 degrees) at 7 MPH (6 knots; 3.1 m/s)
Visibility: 6 or more miles (10+ km)
Ceiling: at least 12,000 feet AGL
Clouds: few clouds at 3000 feet AGL
scattered clouds at 3300 feet AGL
Weather: no significant weather observed at this time

METAR text: ZMUB 180600Z 19003MPS 9999 FEW030CB SCT033 24/07 Q1014 NOSIG RMK QFE653.5 34 MOP
Conditions at: ZMUB (ULAN-BATOR , MG) observed 0600 UTC 18 June 2019
Temperature: 24.0°C (75°F)
Dewpoint: 7.0°C (45°F) [RH = 34%]
Pressure (altimeter): 29.94 inches Hg (1014.0 mb)
Winds: from the S (190 degrees) at 7 MPH (6 knots; 3.1 m/s)
Visibility: 6 or more miles (10+ km)
Ceiling: at least 12,000 feet AGL
Clouds: few clouds at 3000 feet AGL
scattered clouds at 3300 feet AGL
Weather: no significant weather observed at this time

METAR text: ZMUB 180530Z 21004MPS 170V270 9999 FEW030CB SCT033 24/08 Q1014 NOSIG RMK QFE653.6 36 MOP
Conditions at: ZMUB (ULAN-BATOR , MG) observed 0530 UTC 18 June 2019
Temperature: 24.0°C (75°F)
Dewpoint: 8.0°C (46°F) [RH = 36%]
Pressure (altimeter): 29.94 inches Hg (1014.0 mb)
Winds: from the SSW (210 degrees) at 9 MPH (8 knots; 4.1 m/s)
Visibility: 6 or more miles (10+ km)
Ceiling: at least 12,000 feet AGL
Clouds: few clouds at 3000 feet AGL
scattered clouds at 3300 feet AGL
Weather: no significant weather observed at this time

METAR text: ZMUB 180500Z 20002G07MPS 9999 FEW030TCU FEW033 23/09 Q1015 NOSIG RMK QFE653.7 42 MOP
Conditions at: ZMUB (ULAN-BATOR , MG) observed 0500 UTC 18 June 2019
Temperature: 23.0°C (73°F)
Dewpoint: 9.0°C (48°F) [RH = 41%]
Pressure (altimeter): 29.97 inches Hg (1015.0 mb)
Winds: from the SSW (200 degrees) at 5 MPH (4 knots; 2.1 m/s)
gusting to 16 MPH (14 knots; 7.2 m/s)
Visibility: 6 or more miles (10+ km)
Ceiling: at least 12,000 feet AGL
Clouds: few clouds at 3000 feet AGL
few clouds at 3300 feet AGL
Weather: no significant weather observed at this time

METAR text: ZMUB 180430Z VRB02MPS 9999 FEW030TCU FEW033 23/09 Q1015 NOSIG RMK QFE653.9 41 MOP
Conditions at: ZMUB (ULAN-BATOR , MG) observed 0430 UTC 18 June 2019
Temperature: 23.0°C (73°F)
Dewpoint: 9.0°C (48°F) [RH = 41%]
Pressure (altimeter): 29.97 inches Hg (1015.0 mb)
Winds: variable direction winds at 5 MPH (4 knots; 2.1 m/s)
Visibility: 6 or more miles (10+ km)
Ceiling: at least 12,000 feet AGL
Clouds: few clouds at 3000 feet AGL
few clouds at 3300 feet AGL
Weather: no significant weather observed at this time

METAR text: ZMUB 180400Z VRB01MPS 9999 FEW030TCU FEW033 21/09 Q1015 NOSIG RMK QFE654.2 47 MOP
Conditions at: ZMUB (ULAN-BATOR , MG) observed 0400 UTC 18 June 2019
Temperature: 21.0°C (70°F)
Dewpoint: 9.0°C (48°F) [RH = 46%]
Pressure (altimeter): 29.97 inches Hg (1015.0 mb)
Winds: variable direction winds at 2 MPH (2 knots; 1.0 m/s)
Visibility: 6 or more miles (10+ km)
Ceiling: at least 12,000 feet AGL
Clouds: few clouds at 3000 feet AGL
few clouds at 3300 feet AGL
Weather: no significant weather observed at this time

METAR text: ZMUB 180330Z VRB01MPS 9999 FEW030TCU FEW033 21/11 Q1015 NOSIG RMK QFE654.2 51 MOP
Conditions at: ZMUB (ULAN-BATOR , MG) observed 0330 UTC 18 June 2019
Temperature: 21.0°C (70°F)
Dewpoint: 11.0°C (52°F) [RH = 53%]
Pressure (altimeter): 29.97 inches Hg (1015.0 mb)
Winds: variable direction winds at 2 MPH (2 knots; 1.0 m/s)
Visibility: 6 or more miles (10+ km)
Ceiling: at least 12,000 feet AGL
Clouds: few clouds at 3000 feet AGL
few clouds at 3300 feet AGL
Weather: no significant weather observed at this time

METAR text: ZMUB 180300Z VRB02MPS 9999 FEW033 20/10 Q1015 NOSIG RMK QFE654.2 57 MOP
Conditions at: ZMUB (ULAN-BATOR , MG) observed 0300 UTC 18 June 2019
Temperature: 20.0°C (68°F)
Dewpoint: 10.0°C (50°F) [RH = 53%]
Pressure (altimeter): 29.97 inches Hg (1015.0 mb)
Winds: variable direction winds at 5 MPH (4 knots; 2.1 m/s)
Visibility: 6 or more miles (10+ km)
Ceiling: at least 12,000 feet AGL
Clouds: few clouds at 3300 feet AGL
Weather: no significant weather observed at this time

METAR text: ZMUB 180230Z VRB02MPS 9999 FEW033 20/10 Q1015 NOSIG RMK QFE654.2 55 MOP
Conditions at: ZMUB (ULAN-BATOR , MG) observed 0230 UTC 18 June 2019
Temperature: 20.0°C (68°F)
Dewpoint: 10.0°C (50°F) [RH = 53%]
Pressure (altimeter): 29.97 inches Hg (1015.0 mb)
Winds: variable direction winds at 5 MPH (4 knots; 2.1 m/s)
Visibility: 6 or more miles (10+ km)
Ceiling: at least 12,000 feet AGL
Clouds: few clouds at 3300 feet AGL
Weather: no significant weather observed at this time

METAR text: ZMUB 180200Z VRB01MPS 9999 FEW033 19/10 Q1015 NOSIG RMK QFE654.2 57 MOP
Conditions at: ZMUB (ULAN-BATOR , MG) observed 0200 UTC 18 June 2019
Temperature: 19.0°C (66°F)
Dewpoint: 10.0°C (50°F) [RH = 56%]
Pressure (altimeter): 29.97 inches Hg (1015.0 mb)
Winds: variable direction winds at 2 MPH (2 knots; 1.0 m/s)
Visibility: 6 or more miles (10+ km)
Ceiling: at least 12,000 feet AGL
Clouds: few clouds at 3300 feet AGL
Weather: no significant weather observed at this time

METAR text: ZMUB 180130Z VRB01MPS 9999 FEW033 18/10 Q1015 NOSIG RMK QFE654.1 60 MOP
Conditions at: ZMUB (ULAN-BATOR , MG) observed 0130 UTC 18 June 2019
Temperature: 18.0°C (64°F)
Dewpoint: 10.0°C (50°F) [RH = 59%]
Pressure (altimeter): 29.97 inches Hg (1015.0 mb)
Winds: variable direction winds at 2 MPH (2 knots; 1.0 m/s)
Visibility: 6 or more miles (10+ km)
Ceiling: at least 12,000 feet AGL
Clouds: few clouds at 3300 feet AGL
Weather: no significant weather observed at this time

METAR text: ZMUB 180100Z VRB01MPS 9999 FEW033 17/10 Q1015 NOSIG RMK QFE654.0 62 MOP
Conditions at: ZMUB (ULAN-BATOR , MG) observed 0100 UTC 18 June 2019
Temperature: 17.0°C (63°F)
Dewpoint: 10.0°C (50°F) [RH = 63%]
Pressure (altimeter): 29.97 inches Hg (1015.0 mb)
Winds: variable direction winds at 2 MPH (2 knots; 1.0 m/s)
Visibility: 6 or more miles (10+ km)
Ceiling: at least 12,000 feet AGL
Clouds: few clouds at 3300 feet AGL
Weather: no significant weather observed at this time

METAR text: ZMUB 180030Z VRB01MPS CAVOK 16/10 Q1015 NOSIG RMK QFE654.1 66
Conditions at: ZMUB (ULAN-BATOR , MG) observed 0030 UTC 18 June 2019
Temperature: 16.0°C (61°F)
Dewpoint: 10.0°C (50°F) [RH = 68%]
Pressure (altimeter): 29.97 inches Hg (1015.0 mb)
Winds: variable direction winds at 2 MPH (2 knots; 1.0 m/s)
Visibility: 6 or more miles (10+ km)
Ceiling: ceiling and visibility are OK
Clouds: unknown
Weather: no significant weather observed at this time

METAR text: ZMUB 180000Z VRB01MPS CAVOK 14/10 Q1015 NOSIG RMK QFE653.9 74
Conditions at: ZMUB (ULAN-BATOR , MG) observed 0000 UTC 18 June 2019
Temperature: 14.0°C (57°F)
Dewpoint: 10.0°C (50°F) [RH = 77%]
Pressure (altimeter): 29.97 inches Hg (1015.0 mb)
Winds: variable direction winds at 2 MPH (2 knots; 1.0 m/s)
Visibility: 6 or more miles (10+ km)
Ceiling: ceiling and visibility are OK
Clouds: unknown
Weather: no significant weather observed at this time

METAR text: ZMUB 172330Z VRB01MPS CAVOK 13/10 Q1015 NOSIG RMK QFE653.8 82
Conditions at: ZMUB (ULAN-BATOR , MG) observed 2330 UTC 17 June 2019
Temperature: 13.0°C (55°F)
Dewpoint: 10.0°C (50°F) [RH = 82%]
Pressure (altimeter): 29.97 inches Hg (1015.0 mb)
Winds: variable direction winds at 2 MPH (2 knots; 1.0 m/s)
Visibility: 6 or more miles (10+ km)
Ceiling: ceiling and visibility are OK
Clouds: unknown
Weather: no significant weather observed at this time

METAR text: ZMUB 172300Z 00000MPS CAVOK 12/09 Q1015 NOSIG RMK QFE653.9 86
Conditions at: ZMUB (ULAN-BATOR , MG) observed 2300 UTC 17 June 2019
Temperature: 12.0°C (54°F)
Dewpoint: 9.0°C (48°F) [RH = 82%]
Pressure (altimeter): 29.97 inches Hg (1015.0 mb)
Winds: calm
Visibility: 6 or more miles (10+ km)
Ceiling: ceiling and visibility are OK
Clouds: unknown
Weather: no significant weather observed at this time

METAR text: ZMUB 172230Z 28002MPS CAVOK 10/09 Q1015 NOSIG RMK QFE653.8 91
Conditions at: ZMUB (ULAN-BATOR , MG) observed 2230 UTC 17 June 2019
Temperature: 10.0°C (50°F)
Dewpoint: 9.0°C (48°F) [RH = 93%]
Pressure (altimeter): 29.97 inches Hg (1015.0 mb)
Winds: from the W (280 degrees) at 5 MPH (4 knots; 2.1 m/s)
Visibility: 6 or more miles (10+ km)
Ceiling: ceiling and visibility are OK
Clouds: unknown
Weather: no significant weather observed at this time

METAR text: ZMUB 172200Z 00000MPS CAVOK 09/08 Q1014 NOSIG RMK QFE653.5 92
Conditions at: ZMUB (ULAN-BATOR , MG) observed 2200 UTC 17 June 2019
Temperature: 9.0°C (48°F)
Dewpoint: 8.0°C (46°F) [RH = 93%]
Pressure (altimeter): 29.94 inches Hg (1014.0 mb)
Winds: calm
Visibility: 6 or more miles (10+ km)
Ceiling: ceiling and visibility are OK
Clouds: unknown
Weather: no significant weather observed at this time

METAR text: ZMUB 172130Z VRB01MPS CAVOK 08/06 Q1014 NOSIG RMK QFE653.5 90
Conditions at: ZMUB (ULAN-BATOR , MG) observed 2130 UTC 17 June 2019
Temperature: 8.0°C (46°F)
Dewpoint: 6.0°C (43°F) [RH = 87%]
Pressure (altimeter): 29.94 inches Hg (1014.0 mb)
Winds: variable direction winds at 2 MPH (2 knots; 1.0 m/s)
Visibility: 6 or more miles (10+ km)
Ceiling: ceiling and visibility are OK
Clouds: unknown
Weather: no significant weather observed at this time

METAR text: ZMUB 172100Z VRB01MPS CAVOK 08/07 Q1014 NOSIG RMK QFE653.4 92
Conditions at: ZMUB (ULAN-BATOR , MG) observed 2100 UTC 17 June 2019
Temperature: 8.0°C (46°F)
Dewpoint: 7.0°C (45°F) [RH = 93%]
Pressure (altimeter): 29.94 inches Hg (1014.0 mb)
Winds: variable direction winds at 2 MPH (2 knots; 1.0 m/s)
Visibility: 6 or more miles (10+ km)
Ceiling: ceiling and visibility are OK
Clouds: unknown
Weather: no significant weather observed at this time

METAR text: ZMUB 172030Z VRB01MPS CAVOK 09/08 Q1014 NOSIG RMK QFE653.3 92
Conditions at: ZMUB (ULAN-BATOR , MG) observed 2030 UTC 17 June 2019
Temperature: 9.0°C (48°F)
Dewpoint: 8.0°C (46°F) [RH = 93%]
Pressure (altimeter): 29.94 inches Hg (1014.0 mb)
Winds: variable direction winds at 2 MPH (2 knots; 1.0 m/s)
Visibility: 6 or more miles (10+ km)
Ceiling: ceiling and visibility are OK
Clouds: unknown
Weather: no significant weather observed at this time

METAR text: ZMUB 172000Z VRB01MPS CAVOK 09/07 Q1014 NOSIG RMK QFE653.3 91
Conditions at: ZMUB (ULAN-BATOR , MG) observed 2000 UTC 17 June 2019
Temperature: 9.0°C (48°F)
Dewpoint: 7.0°C (45°F) [RH = 87%]
Pressure (altimeter): 29.94 inches Hg (1014.0 mb)
Winds: variable direction winds at 2 MPH (2 knots; 1.0 m/s)
Visibility: 6 or more miles (10+ km)
Ceiling: ceiling and visibility are OK
Clouds: unknown
Weather: no significant weather observed at this time

METAR text: ZMUB 171900Z VRB01MPS CAVOK 09/07 Q1013 NOSIG RMK QFE652.9 91
Conditions at: ZMUB (ULAN-BATOR , MG) observed 1900 UTC 17 June 2019
Temperature: 9.0°C (48°F)
Dewpoint: 7.0°C (45°F) [RH = 87%]
Pressure (altimeter): 29.91 inches Hg (1013.0 mb)
Winds: variable direction winds at 2 MPH (2 knots; 1.0 m/s)
Visibility: 6 or more miles (10+ km)
Ceiling: ceiling and visibility are OK
Clouds: unknown
Weather: no significant weather observed at this time

METAR text: ZMUB 171800Z VRB01MPS CAVOK 11/09 Q1013 NOSIG RMK QFE652.8 90
Conditions at: ZMUB (ULAN-BATOR , MG) observed 1800 UTC 17 June 2019
Temperature: 11.0°C (52°F)
Dewpoint: 9.0°C (48°F) [RH = 87%]
Pressure (altimeter): 29.91 inches Hg (1013.0 mb)
Winds: variable direction winds at 2 MPH (2 knots; 1.0 m/s)
Visibility: 6 or more miles (10+ km)
Ceiling: ceiling and visibility are OK
Clouds: unknown
Weather: no significant weather observed at this time

METAR text: ZMUB 171730Z 00000MPS CAVOK 11/09 Q1013 NOSIG RMK QFE652.5 88
Conditions at: ZMUB (ULAN-BATOR , MG) observed 1730 UTC 17 June 2019
Temperature: 11.0°C (52°F)
Dewpoint: 9.0°C (48°F) [RH = 87%]
Pressure (altimeter): 29.91 inches Hg (1013.0 mb)
Winds: calm
Visibility: 6 or more miles (10+ km)
Ceiling: ceiling and visibility are OK
Clouds: unknown
Weather: no significant weather observed at this time

METAR text: ZMUB 171700Z VRB01MPS CAVOK 10/08 Q1012 NOSIG RMK QFE652.5 88
Conditions at: ZMUB (ULAN-BATOR , MG) observed 1700 UTC 17 June 2019
Temperature: 10.0°C (50°F)
Dewpoint: 8.0°C (46°F) [RH = 87%]
Pressure (altimeter): 29.88 inches Hg (1012.0 mb)
Winds: variable direction winds at 2 MPH (2 knots; 1.0 m/s)
Visibility: 6 or more miles (10+ km)
Ceiling: ceiling and visibility are OK
Clouds: unknown
Weather: no significant weather observed at this time

METAR text: ZMUB 171630Z 00000MPS CAVOK 12/10 Q1012 NOSIG RMK QFE652.4 84
Conditions at: ZMUB (ULAN-BATOR , MG) observed 1630 UTC 17 June 2019
Temperature: 12.0°C (54°F)
Dewpoint: 10.0°C (50°F) [RH = 88%]
Pressure (altimeter): 29.88 inches Hg (1012.0 mb)
Winds: calm
Visibility: 6 or more miles (10+ km)
Ceiling: ceiling and visibility are OK
Clouds: unknown
Weather: no significant weather observed at this time

METAR text: ZMUB 171600Z VRB01MPS CAVOK 12/09 Q1012 NOSIG RMK QFE652.4 85
Conditions at: ZMUB (ULAN-BATOR , MG) observed 1600 UTC 17 June 2019
Temperature: 12.0°C (54°F)
Dewpoint: 9.0°C (48°F) [RH = 82%]
Pressure (altimeter): 29.88 inches Hg (1012.0 mb)
Winds: variable direction winds at 2 MPH (2 knots; 1.0 m/s)
Visibility: 6 or more miles (10+ km)
Ceiling: ceiling and visibility are OK
Clouds: unknown
Weather: no significant weather observed at this time

METAR text: ZMUB 171530Z VRB01MPS CAVOK 12/09 Q1012 NOSIG RMK QFE652.2 85
Conditions at: ZMUB (ULAN-BATOR , MG) observed 1530 UTC 17 June 2019
Temperature: 12.0°C (54°F)
Dewpoint: 9.0°C (48°F) [RH = 82%]
Pressure (altimeter): 29.88 inches Hg (1012.0 mb)
Winds: variable direction winds at 2 MPH (2 knots; 1.0 m/s)
Visibility: 6 or more miles (10+ km)
Ceiling: ceiling and visibility are OK
Clouds: unknown
Weather: no significant weather observed at this time

METAR text: ZMUB 171500Z VRB01MPS CAVOK 13/10 Q1012 NOSIG RMK QFE652.2 82
Conditions at: ZMUB (ULAN-BATOR , MG) observed 1500 UTC 17 June 2019
Temperature: 13.0°C (55°F)
Dewpoint: 10.0°C (50°F) [RH = 82%]
Pressure (altimeter): 29.88 inches Hg (1012.0 mb)
Winds: variable direction winds at 2 MPH (2 knots; 1.0 m/s)
Visibility: 6 or more miles (10+ km)
Ceiling: ceiling and visibility are OK
Clouds: unknown
Weather: no significant weather observed at this time

METAR text: ZMUB 171430Z VRB01MPS 9999 FEW033 13/10 Q1012 NOSIG RMK QFE651.9 81 NT
Conditions at: ZMUB (ULAN-BATOR , MG) observed 1430 UTC 17 June 2019
Temperature: 13.0°C (55°F)
Dewpoint: 10.0°C (50°F) [RH = 82%]
Pressure (altimeter): 29.88 inches Hg (1012.0 mb)
Winds: variable direction winds at 2 MPH (2 knots; 1.0 m/s)
Visibility: 6 or more miles (10+ km)
Ceiling: at least 12,000 feet AGL
Clouds: few clouds at 3300 feet AGL
Weather: no significant weather observed at this time

METAR text: ZMUB 171400Z VRB02MPS 9999 FEW033 13/10 Q1011 NOSIG RMK QFE651.9 79 NT
Conditions at: ZMUB (ULAN-BATOR , MG) observed 1400 UTC 17 June 2019
Temperature: 13.0°C (55°F)
Dewpoint: 10.0°C (50°F) [RH = 82%]
Pressure (altimeter): 29.85 inches Hg (1011.0 mb)
Winds: variable direction winds at 5 MPH (4 knots; 2.1 m/s)
Visibility: 6 or more miles (10+ km)
Ceiling: at least 12,000 feet AGL
Clouds: few clouds at 3300 feet AGL
Weather: no significant weather observed at this time

METAR text: ZMUB 171330Z 15002MPS 9999 FEW033 14/10 Q1011 NOSIG RMK QFE651.7 77 NT
Conditions at: ZMUB (ULAN-BATOR , MG) observed 1330 UTC 17 June 2019
Temperature: 14.0°C (57°F)
Dewpoint: 10.0°C (50°F) [RH = 77%]
Pressure (altimeter): 29.85 inches Hg (1011.0 mb)
Winds: from the SSE (150 degrees) at 5 MPH (4 knots; 2.1 m/s)
Visibility: 6 or more miles (10+ km)
Ceiling: at least 12,000 feet AGL
Clouds: few clouds at 3300 feet AGL
Weather: no significant weather observed at this time

METAR text: ZMUB 171300Z 14003MPS 9999 FEW033 16/09 Q1011 NOSIG RMK QFE651.5 64 MOP
Conditions at: ZMUB (ULAN-BATOR , MG) observed 1300 UTC 17 June 2019
Temperature: 16.0°C (61°F)
Dewpoint: 9.0°C (48°F) [RH = 63%]
Pressure (altimeter): 29.85 inches Hg (1011.0 mb)
Winds: from the SE (140 degrees) at 7 MPH (6 knots; 3.1 m/s)
Visibility: 6 or more miles (10+ km)
Ceiling: at least 12,000 feet AGL
Clouds: few clouds at 3300 feet AGL
Weather: no significant weather observed at this time

METAR text: ZMUB 171230Z 15003MPS 9999 FEW030CB FEW033 18/09 Q1010 NOSIG RMK QFE651.2 55 MOP
Conditions at: ZMUB (ULAN-BATOR , MG) observed 1230 UTC 17 June 2019
Temperature: 18.0°C (64°F)
Dewpoint: 9.0°C (48°F) [RH = 56%]
Pressure (altimeter): 29.82 inches Hg (1010.0 mb)
Winds: from the SSE (150 degrees) at 7 MPH (6 knots; 3.1 m/s)
Visibility: 6 or more miles (10+ km)
Ceiling: at least 12,000 feet AGL
Clouds: few clouds at 3000 feet AGL
few clouds at 3300 feet AGL
Weather: no significant weather observed at this time

METAR text: ZMUB 171200Z VRB02MPS 9999 FEW030CB FEW033 19/08 Q1010 NOSIG RMK QFE651.2 48 MOP
Conditions at: ZMUB (ULAN-BATOR , MG) observed 1200 UTC 17 June 2019
Temperature: 19.0°C (66°F)
Dewpoint: 8.0°C (46°F) [RH = 49%]
Pressure (altimeter): 29.82 inches Hg (1010.0 mb)
Winds: variable direction winds at 5 MPH (4 knots; 2.1 m/s)
Visibility: 6 or more miles (10+ km)
Ceiling: at least 12,000 feet AGL
Clouds: few clouds at 3000 feet AGL
few clouds at 3300 feet AGL
Weather: no significant weather observed at this time

METAR text: ZMUB 171130Z VRB01MPS 9999 FEW030CB SCT033 20/10 Q1010 NOSIG RMK QFE651.1 54 MOP
Conditions at: ZMUB (ULAN-BATOR , MG) observed 1130 UTC 17 June 2019
Temperature: 20.0°C (68°F)
Dewpoint: 10.0°C (50°F) [RH = 53%]
Pressure (altimeter): 29.82 inches Hg (1010.0 mb)
Winds: variable direction winds at 2 MPH (2 knots; 1.0 m/s)
Visibility: 6 or more miles (10+ km)
Ceiling: at least 12,000 feet AGL
Clouds: few clouds at 3000 feet AGL
scattered clouds at 3300 feet AGL
Weather: no significant weather observed at this time

METAR text: ZMUB 171100Z VRB02MPS 9999 FEW030CB SCT033 19/10 Q1010 NOSIG RMK QFE650.9 55 MOP
Conditions at: ZMUB (ULAN-BATOR , MG) observed 1100 UTC 17 June 2019
Temperature: 19.0°C (66°F)
Dewpoint: 10.0°C (50°F) [RH = 56%]
Pressure (altimeter): 29.82 inches Hg (1010.0 mb)
Winds: variable direction winds at 5 MPH (4 knots; 2.1 m/s)
Visibility: 6 or more miles (10+ km)
Ceiling: at least 12,000 feet AGL
Clouds: few clouds at 3000 feet AGL
scattered clouds at 3300 feet AGL
Weather: no significant weather observed at this time

METAR text: ZMUB 171030Z VRB02MPS 9999 FEW030CB BKN033 18/10 Q1010 NOSIG RMK QFE650.9 56 MOP
Conditions at: ZMUB (ULAN-BATOR , MG) observed 1030 UTC 17 June 2019
Temperature: 18.0°C (64°F)
Dewpoint: 10.0°C (50°F) [RH = 59%]
Pressure (altimeter): 29.82 inches Hg (1010.0 mb)
Winds: variable direction winds at 5 MPH (4 knots; 2.1 m/s)
Visibility: 6 or more miles (10+ km)
Ceiling: 3300 feet AGL
Clouds: few clouds at 3000 feet AGL
broken clouds at 3300 feet AGL
Weather: no significant weather observed at this time

METAR text: ZMUB 171000Z 16004MPS 9999 SCT030CB SCT033 18/09 Q1010 NOSIG RMK QFE650.8 57 MOP
Conditions at: ZMUB (ULAN-BATOR , MG) observed 1000 UTC 17 June 2019
Temperature: 18.0°C (64°F)
Dewpoint: 9.0°C (48°F) [RH = 56%]
Pressure (altimeter): 29.82 inches Hg (1010.0 mb)
Winds: from the SSE (160 degrees) at 9 MPH (8 knots; 4.1 m/s)
Visibility: 6 or more miles (10+ km)
Ceiling: at least 12,000 feet AGL
Clouds: scattered clouds at 3000 feet AGL
scattered clouds at 3300 feet AGL
Weather: no significant weather observed at this time

METAR text: ZMUB 170930Z 15005MPS 9999 SCT030CB SCT033 18/11 Q1010 NOSIG RMK QFE650.9 57 MOP
Conditions at: ZMUB (ULAN-BATOR , MG) observed 0930 UTC 17 June 2019
Temperature: 18.0°C (64°F)
Dewpoint: 11.0°C (52°F) [RH = 64%]
Pressure (altimeter): 29.82 inches Hg (1010.0 mb)
Winds: from the SSE (150 degrees) at 12 MPH (10 knots; 5.1 m/s)
Visibility: 6 or more miles (10+ km)
Ceiling: at least 12,000 feet AGL
Clouds: scattered clouds at 3000 feet AGL
scattered clouds at 3300 feet AGL
Weather: no significant weather observed at this time

METAR text: ZMUB 170900Z 15003MPS 110V180 9999 FEW030CB BKN033 19/10 Q1010 NOSIG RMK QFE651.0 53 MOP
Conditions at: ZMUB (ULAN-BATOR , MG) observed 0900 UTC 17 June 2019
Temperature: 19.0°C (66°F)
Dewpoint: 10.0°C (50°F) [RH = 56%]
Pressure (altimeter): 29.82 inches Hg (1010.0 mb)
Winds: from the SSE (150 degrees) at 7 MPH (6 knots; 3.1 m/s)
Visibility: 6 or more miles (10+ km)
Ceiling: 3300 feet AGL
Clouds: few clouds at 3000 feet AGL
broken clouds at 3300 feet AGL
Weather: no significant weather observed at this time

METAR text: ZMUB 170830Z VRB02MPS 9999 FEW030CB BKN033 20/10 Q1010 NOSIG RMK QFE651.1 62 MOP
Conditions at: ZMUB (ULAN-BATOR , MG) observed 0830 UTC 17 June 2019
Temperature: 20.0°C (68°F)
Dewpoint: 10.0°C (50°F) [RH = 53%]
Pressure (altimeter): 29.82 inches Hg (1010.0 mb)
Winds: variable direction winds at 5 MPH (4 knots; 2.1 m/s)
Visibility: 6 or more miles (10+ km)
Ceiling: 3300 feet AGL
Clouds: few clouds at 3000 feet AGL
broken clouds at 3300 feet AGL
Weather: no significant weather observed at this time

METAR text: ZMUB 170800Z 24003MPS 190V280 9999 FEW030CB BKN033 18/10 Q1010 NOSIG RMK QFE651.1 62 MOP
Conditions at: ZMUB (ULAN-BATOR , MG) observed 0800 UTC 17 June 2019
Temperature: 18.0°C (64°F)
Dewpoint: 10.0°C (50°F) [RH = 59%]
Pressure (altimeter): 29.82 inches Hg (1010.0 mb)
Winds: from the WSW (240 degrees) at 7 MPH (6 knots; 3.1 m/s)
Visibility: 6 or more miles (10+ km)
Ceiling: 3300 feet AGL
Clouds: few clouds at 3000 feet AGL
broken clouds at 3300 feet AGL
Weather: no significant weather observed at this time

METAR text: ZMUB 170730Z 23004MPS 210V270 9999 FEW030CB BKN033 17/10 Q1011 NOSIG RMK QFE651.3 63 MOP
Conditions at: ZMUB (ULAN-BATOR , MG) observed 0730 UTC 17 June 2019
Temperature: 17.0°C (63°F)
Dewpoint: 10.0°C (50°F) [RH = 63%]
Pressure (altimeter): 29.85 inches Hg (1011.0 mb)
Winds: from the SW (230 degrees) at 9 MPH (8 knots; 4.1 m/s)
Visibility: 6 or more miles (10+ km)
Ceiling: 3300 feet AGL
Clouds: few clouds at 3000 feet AGL
broken clouds at 3300 feet AGL
Weather: no significant weather observed at this time

METAR text: ZMUB 170700Z 18003MPS 150V220 9999 FEW030CB BKN033 18/10 Q1011 NOSIG RMK QFE651.3 60 MOP
Conditions at: ZMUB (ULAN-BATOR , MG) observed 0700 UTC 17 June 2019
Temperature: 18.0°C (64°F)
Dewpoint: 10.0°C (50°F) [RH = 59%]
Pressure (altimeter): 29.85 inches Hg (1011.0 mb)
Winds: from the S (180 degrees) at 7 MPH (6 knots; 3.1 m/s)
Visibility: 6 or more miles (10+ km)
Ceiling: 3300 feet AGL
Clouds: few clouds at 3000 feet AGL
broken clouds at 3300 feet AGL
Weather: no significant weather observed at this time

METAR text: ZMUB 170630Z VRB02MPS 9999 FEW030CB BKN033 18/10 Q1011 NOSIG RMK QFE651.3 58 MOP
Conditions at: ZMUB (ULAN-BATOR , MG) observed 0630 UTC 17 June 2019
Temperature: 18.0°C (64°F)
Dewpoint: 10.0°C (50°F) [RH = 59%]
Pressure (altimeter): 29.85 inches Hg (1011.0 mb)
Winds: variable direction winds at 5 MPH (4 knots; 2.1 m/s)
Visibility: 6 or more miles (10+ km)
Ceiling: 3300 feet AGL
Clouds: few clouds at 3000 feet AGL
broken clouds at 3300 feet AGL
Weather: no significant weather observed at this time

METAR text: ZMUB 170600Z 14003MPS 050V210 9999 FEW030CB BKN033 18/09 Q1011 NOSIG RMK QFE651.3 58 MOP
Conditions at: ZMUB (ULAN-BATOR , MG) observed 0600 UTC 17 June 2019
Temperature: 18.0°C (64°F)
Dewpoint: 9.0°C (48°F) [RH = 56%]
Pressure (altimeter): 29.85 inches Hg (1011.0 mb)
Winds: from the SE (140 degrees) at 7 MPH (6 knots; 3.1 m/s)
Visibility: 6 or more miles (10+ km)
Ceiling: 3300 feet AGL
Clouds: few clouds at 3000 feet AGL
broken clouds at 3300 feet AGL
Weather: no significant weather observed at this time

METAR text: ZMUB 170530Z VRB01MPS 9999 FEW030CB BKN033 17/09 Q1011 NOSIG RMK QFE651.4 60 MOP
Conditions at: ZMUB (ULAN-BATOR , MG) observed 0530 UTC 17 June 2019
Temperature: 17.0°C (63°F)
Dewpoint: 9.0°C (48°F) [RH = 59%]
Pressure (altimeter): 29.85 inches Hg (1011.0 mb)
Winds: variable direction winds at 2 MPH (2 knots; 1.0 m/s)
Visibility: 6 or more miles (10+ km)
Ceiling: 3300 feet AGL
Clouds: few clouds at 3000 feet AGL
broken clouds at 3300 feet AGL
Weather: no significant weather observed at this time

METAR text: ZMUB 170500Z VRB01MPS 9999 FEW030CB BKN033 17/10 Q1011 NOSIG RMK QFE651.5 62 MOP
Conditions at: ZMUB (ULAN-BATOR , MG) observed 0500 UTC 17 June 2019
Temperature: 17.0°C (63°F)
Dewpoint: 10.0°C (50°F) [RH = 63%]
Pressure (altimeter): 29.85 inches Hg (1011.0 mb)
Winds: variable direction winds at 2 MPH (2 knots; 1.0 m/s)
Visibility: 6 or more miles (10+ km)
Ceiling: 3300 feet AGL
Clouds: few clouds at 3000 feet AGL
broken clouds at 3300 feet AGL
Weather: no significant weather observed at this time

METAR text: ZMUB 170430Z VRB02MPS 9999 FEW030CB BKN033 16/10 Q1011 NOSIG RMK QFE651.5 67 MOP
Conditions at: ZMUB (ULAN-BATOR , MG) observed 0430 UTC 17 June 2019
Temperature: 16.0°C (61°F)
Dewpoint: 10.0°C (50°F) [RH = 68%]
Pressure (altimeter): 29.85 inches Hg (1011.0 mb)
Winds: variable direction winds at 5 MPH (4 knots; 2.1 m/s)
Visibility: 6 or more miles (10+ km)
Ceiling: 3300 feet AGL
Clouds: few clouds at 3000 feet AGL
broken clouds at 3300 feet AGL
Weather: no significant weather observed at this time

METAR text: ZMUB 170400Z VRB02MPS 9999 FEW030CB BKN033 15/10 Q1011 NOSIG RMK QFE651.6 69 MOP
Conditions at: ZMUB (ULAN-BATOR , MG) observed 0400 UTC 17 June 2019
Temperature: 15.0°C (59°F)
Dewpoint: 10.0°C (50°F) [RH = 72%]
Pressure (altimeter): 29.85 inches Hg (1011.0 mb)
Winds: variable direction winds at 5 MPH (4 knots; 2.1 m/s)
Visibility: 6 or more miles (10+ km)
Ceiling: 3300 feet AGL
Clouds: few clouds at 3000 feet AGL
broken clouds at 3300 feet AGL
Weather: no significant weather observed at this time

METAR text: ZMUB 170330Z 30003MPS 9999 FEW030CB BKN033 15/10 Q1011 R14CLRD95 NOSIG RMK QFE651.5 74 MOP
Conditions at: ZMUB (ULAN-BATOR , MG) observed 0330 UTC 17 June 2019
Temperature: 15.0°C (59°F)
Dewpoint: 10.0°C (50°F) [RH = 72%]
Pressure (altimeter): 29.85 inches Hg (1011.0 mb)
Winds: from the WNW (300 degrees) at 7 MPH (6 knots; 3.1 m/s)
Visibility: 6 or more miles (10+ km)
Ceiling: 3300 feet AGL
Clouds: few clouds at 3000 feet AGL
broken clouds at 3300 feet AGL
Weather: no significant weather observed at this time

METAR text: ZMUB 170300Z 30003MPS 270V340 9999 FEW027 FEW030CB BKN033 15/10 Q1011 NOSIG RMK QFE651.4 74 ESE CM
Conditions at: ZMUB (ULAN-BATOR , MG) observed 0300 UTC 17 June 2019
Temperature: 15.0°C (59°F)
Dewpoint: 10.0°C (50°F) [RH = 72%]
Pressure (altimeter): 29.85 inches Hg (1011.0 mb)
Winds: from the WNW (300 degrees) at 7 MPH (6 knots; 3.1 m/s)
Visibility: 6 or more miles (10+ km)
Ceiling: 3300 feet AGL
Clouds: few clouds at 2700 feet AGL
few clouds at 3000 feet AGL
broken clouds at 3300 feet AGL
Weather: no significant weather observed at this time

METAR text: ZMUB 170230Z VRB01MPS 9999 FEW027 FEW030CB BKN033 15/10 Q1011 R14140095 NOSIG RMK QFE651.3 73 ESE CM
Conditions at: ZMUB (ULAN-BATOR , MG) observed 0230 UTC 17 June 2019
Temperature: 15.0°C (59°F)
Dewpoint: 10.0°C (50°F) [RH = 72%]
Pressure (altimeter): 29.85 inches Hg (1011.0 mb)
Winds: variable direction winds at 2 MPH (2 knots; 1.0 m/s)
Visibility: 6 or more miles (10+ km)
Ceiling: 3300 feet AGL
Clouds: few clouds at 2700 feet AGL
few clouds at 3000 feet AGL
broken clouds at 3300 feet AGL
Weather: no significant weather observed at this time

METAR text: ZMUB 170200Z VRB01MPS 9999 FEW027 FEW030CB BKN033 14/10 Q1010 R14140095 NOSIG RMK QFE651.2 74 SE MO
Conditions at: ZMUB (ULAN-BATOR , MG) observed 0200 UTC 17 June 2019
Temperature: 14.0°C (57°F)
Dewpoint: 10.0°C (50°F) [RH = 77%]
Pressure (altimeter): 29.82 inches Hg (1010.0 mb)
Winds: variable direction winds at 2 MPH (2 knots; 1.0 m/s)
Visibility: 6 or more miles (10+ km)
Ceiling: 3300 feet AGL
Clouds: few clouds at 2700 feet AGL
few clouds at 3000 feet AGL
broken clouds at 3300 feet AGL
Weather: no significant weather observed at this time

METAR text: ZMUB 170130Z VRB01MPS 9999 FEW030CB BKN033 14/10 Q1011 R14140095 NOSIG RMK QFE651.3 77 MOP
Conditions at: ZMUB (ULAN-BATOR , MG) observed 0130 UTC 17 June 2019
Temperature: 14.0°C (57°F)
Dewpoint: 10.0°C (50°F) [RH = 77%]
Pressure (altimeter): 29.85 inches Hg (1011.0 mb)
Winds: variable direction winds at 2 MPH (2 knots; 1.0 m/s)
Visibility: 6 or more miles (10+ km)
Ceiling: 3300 feet AGL
Clouds: few clouds at 3000 feet AGL
broken clouds at 3300 feet AGL
Weather: no significant weather observed at this time

METAR text: ZMUB 170100Z VRB01MPS 9999 SCT030CB SCT033 13/10 Q1010 R14140095 NOSIG RMK QFE651.2 83 MOP
Conditions at: ZMUB (ULAN-BATOR , MG) observed 0100 UTC 17 June 2019
Temperature: 13.0°C (55°F)
Dewpoint: 10.0°C (50°F) [RH = 82%]
Pressure (altimeter): 29.82 inches Hg (1010.0 mb)
Winds: variable direction winds at 2 MPH (2 knots; 1.0 m/s)
Visibility: 6 or more miles (10+ km)
Ceiling: at least 12,000 feet AGL
Clouds: scattered clouds at 3000 feet AGL
scattered clouds at 3300 feet AGL
Weather: no significant weather observed at this time

METAR text: ZMUB 170030Z VRB01MPS 9999 SCT030CB SCT033 12/10 Q1010 R14140095 NOSIG RMK QFE651.0 86 MOP
Conditions at: ZMUB (ULAN-BATOR , MG) observed 0030 UTC 17 June 2019
Temperature: 12.0°C (54°F)
Dewpoint: 10.0°C (50°F) [RH = 88%]
Pressure (altimeter): 29.82 inches Hg (1010.0 mb)
Winds: variable direction winds at 2 MPH (2 knots; 1.0 m/s)
Visibility: 6 or more miles (10+ km)
Ceiling: at least 12,000 feet AGL
Clouds: scattered clouds at 3000 feet AGL
scattered clouds at 3300 feet AGL
Weather: no significant weather observed at this time

Forecast for: ZMUB (ULAN-BATOR , MG)
Text: TAF ZMUB 181030Z 1812/1918 VRB02MPS 9999 FEW030CB SCT033 TN10/1822Z TX28/1907Z
Forecast period: 1200 UTC 18 June 2019 to 1800 UTC 19 June 2019
Forecast type: FROM: standard forecast or significant change
Winds: variable direction winds at 5 MPH (4 knots; 2.1 m/s)
Visibility: 6 or more miles 10+ km)
Ceiling: at least 12,000 feet AGL
Clouds: few clouds at 3000 feet AGL
scattered clouds at 3300 feet AGL
Weather: no significant weather forecast for this period